sensor_id;sensor_type;location;lat;lon;timestamp;P1;durP1;ratioP1;P2;durP2;ratioP2
44222;SDS011;29895;48.804;9.386;2023-11-22T00:01:19;35.92;;;16.92;;
44222;SDS011;29895;48.804;9.386;2023-11-22T00:03:45;33.10;;;17.02;;
44222;SDS011;29895;48.804;9.386;2023-11-22T00:06:11;38.83;;;18.05;;
44222;SDS011;29895;48.804;9.386;2023-11-22T00:08:37;11.13;;;6.43;;
44222;SDS011;29895;48.804;9.386;2023-11-22T00:11:02;13.55;;;5.60;;
44222;SDS011;29895;48.804;9.386;2023-11-22T00:13:28;4.63;;;3.63;;
44222;SDS011;29895;48.804;9.386;2023-11-22T00:15:54;6.07;;;4.30;;
44222;SDS011;29895;48.804;9.386;2023-11-22T00:18:21;5.10;;;3.58;;
44222;SDS011;29895;48.804;9.386;2023-11-22T00:20:47;4.32;;;3.55;;
44222;SDS011;29895;48.804;9.386;2023-11-22T00:23:13;5.10;;;3.67;;
44222;SDS011;29895;48.804;9.386;2023-11-22T00:25:39;5.75;;;3.88;;
44222;SDS011;29895;48.804;9.386;2023-11-22T00:28:05;6.38;;;4.13;;
44222;SDS011;29895;48.804;9.386;2023-11-22T00:30:31;5.78;;;4.28;;
44222;SDS011;29895;48.804;9.386;2023-11-22T00:32:57;7.90;;;5.20;;
44222;SDS011;29895;48.804;9.386;2023-11-22T00:35:23;8.48;;;5.47;;
44222;SDS011;29895;48.804;9.386;2023-11-22T00:37:49;9.70;;;6.45;;
44222;SDS011;29895;48.804;9.386;2023-11-22T00:40:14;9.43;;;6.03;;
44222;SDS011;29895;48.804;9.386;2023-11-22T00:42:40;7.20;;;5.25;;
44222;SDS011;29895;48.804;9.386;2023-11-22T00:45:07;8.98;;;5.60;;
44222;SDS011;29895;48.804;9.386;2023-11-22T00:47:34;7.93;;;5.65;;
44222;SDS011;29895;48.804;9.386;2023-11-22T00:50:00;8.90;;;5.90;;
44222;SDS011;29895;48.804;9.386;2023-11-22T00:52:27;10.07;;;5.47;;
44222;SDS011;29895;48.804;9.386;2023-11-22T00:54:53;9.15;;;5.57;;
44222;SDS011;29895;48.804;9.386;2023-11-22T00:57:19;11.65;;;5.43;;
44222;SDS011;29895;48.804;9.386;2023-11-22T00:59:45;8.90;;;6.18;;
44222;SDS011;29895;48.804;9.386;2023-11-22T01:02:10;7.25;;;5.57;;
44222;SDS011;29895;48.804;9.386;2023-11-22T01:04:36;8.30;;;5.63;;
44222;SDS011;29895;48.804;9.386;2023-11-22T01:07:02;12.40;;;6.38;;
44222;SDS011;29895;48.804;9.386;2023-11-22T01:09:31;9.90;;;5.82;;
44222;SDS011;29895;48.804;9.386;2023-11-22T01:11:57;8.00;;;5.55;;
44222;SDS011;29895;48.804;9.386;2023-11-22T01:14:24;10.80;;;6.80;;
44222;SDS011;29895;48.804;9.386;2023-11-22T01:16:51;9.00;;;6.03;;
44222;SDS011;29895;48.804;9.386;2023-11-22T01:19:17;9.68;;;6.63;;
44222;SDS011;29895;48.804;9.386;2023-11-22T01:21:43;11.15;;;6.13;;
44222;SDS011;29895;48.804;9.386;2023-11-22T01:24:09;10.35;;;6.15;;
44222;SDS011;29895;48.804;9.386;2023-11-22T01:26:34;11.38;;;6.68;;
44222;SDS011;29895;48.804;9.386;2023-11-22T01:29:00;9.73;;;6.50;;
44222;SDS011;29895;48.804;9.386;2023-11-22T01:31:27;9.75;;;6.45;;
44222;SDS011;29895;48.804;9.386;2023-11-22T01:33:53;9.80;;;6.82;;
44222;SDS011;29895;48.804;9.386;2023-11-22T01:36:19;8.82;;;6.25;;
44222;SDS011;29895;48.804;9.386;2023-11-22T01:38:45;8.95;;;5.70;;
44222;SDS011;29895;48.804;9.386;2023-11-22T01:41:11;8.13;;;5.97;;
44222;SDS011;29895;48.804;9.386;2023-11-22T01:43:40;8.75;;;5.65;;
44222;SDS011;29895;48.804;9.386;2023-11-22T01:46:10;8.32;;;5.85;;
44222;SDS011;29895;48.804;9.386;2023-11-22T01:48:51;8.02;;;5.10;;
44222;SDS011;29895;48.804;9.386;2023-11-22T01:51:22;8.20;;;4.65;;
44222;SDS011;29895;48.804;9.386;2023-11-22T01:53:49;8.02;;;4.45;;
44222;SDS011;29895;48.804;9.386;2023-11-22T01:56:18;7.75;;;4.80;;
44222;SDS011;29895;48.804;9.386;2023-11-22T01:58:49;9.73;;;4.90;;
44222;SDS011;29895;48.804;9.386;2023-11-22T02:01:15;7.63;;;4.60;;
44222;SDS011;29895;48.804;9.386;2023-11-22T02:03:41;10.00;;;5.72;;
44222;SDS011;29895;48.804;9.386;2023-11-22T02:06:07;8.18;;;4.65;;
44222;SDS011;29895;48.804;9.386;2023-11-22T02:08:34;6.68;;;4.90;;
44222;SDS011;29895;48.804;9.386;2023-11-22T02:11:00;7.32;;;4.68;;
44222;SDS011;29895;48.804;9.386;2023-11-22T02:13:30;9.13;;;5.03;;
44222;SDS011;29895;48.804;9.386;2023-11-22T02:15:56;8.23;;;5.30;;
44222;SDS011;29895;48.804;9.386;2023-11-22T02:18:24;6.80;;;4.95;;
44222;SDS011;29895;48.804;9.386;2023-11-22T02:20:51;7.07;;;4.43;;
44222;SDS011;29895;48.804;9.386;2023-11-22T02:23:16;8.18;;;4.78;;
44222;SDS011;29895;48.804;9.386;2023-11-22T02:25:42;8.75;;;5.25;;
44222;SDS011;29895;48.804;9.386;2023-11-22T02:28:08;9.27;;;5.13;;
44222;SDS011;29895;48.804;9.386;2023-11-22T02:30:34;8.35;;;5.25;;
44222;SDS011;29895;48.804;9.386;2023-11-22T02:33:00;8.40;;;4.93;;
44222;SDS011;29895;48.804;9.386;2023-11-22T02:35:25;8.48;;;5.80;;
44222;SDS011;29895;48.804;9.386;2023-11-22T02:37:55;10.45;;;5.70;;
44222;SDS011;29895;48.804;9.386;2023-11-22T02:40:21;8.90;;;5.22;;
44222;SDS011;29895;48.804;9.386;2023-11-22T02:42:47;8.68;;;5.68;;
44222;SDS011;29895;48.804;9.386;2023-11-22T02:45:14;8.98;;;6.15;;
44222;SDS011;29895;48.804;9.386;2023-11-22T02:47:43;12.45;;;5.47;;
44222;SDS011;29895;48.804;9.386;2023-11-22T02:50:11;8.65;;;5.00;;
44222;SDS011;29895;48.804;9.386;2023-11-22T02:52:38;8.55;;;5.32;;
44222;SDS011;29895;48.804;9.386;2023-11-22T02:55:04;9.80;;;4.82;;
44222;SDS011;29895;48.804;9.386;2023-11-22T02:57:30;7.60;;;4.50;;
44222;SDS011;29895;48.804;9.386;2023-11-22T02:59:57;10.00;;;5.05;;
44222;SDS011;29895;48.804;9.386;2023-11-22T03:02:23;8.82;;;4.80;;
44222;SDS011;29895;48.804;9.386;2023-11-22T03:04:49;11.45;;;5.55;;
44222;SDS011;29895;48.804;9.386;2023-11-22T03:07:15;8.38;;;4.63;;
44222;SDS011;29895;48.804;9.386;2023-11-22T03:09:41;10.80;;;5.03;;
44222;SDS011;29895;48.804;9.386;2023-11-22T03:12:09;6.65;;;4.20;;
44222;SDS011;29895;48.804;9.386;2023-11-22T03:14:35;8.65;;;4.93;;
44222;SDS011;29895;48.804;9.386;2023-11-22T03:17:01;9.20;;;4.88;;
44222;SDS011;29895;48.804;9.386;2023-11-22T03:19:26;8.25;;;4.88;;
44222;SDS011;29895;48.804;9.386;2023-11-22T03:21:52;8.43;;;5.07;;
44222;SDS011;29895;48.804;9.386;2023-11-22T03:24:17;5.90;;;3.83;;
44222;SDS011;29895;48.804;9.386;2023-11-22T03:26:43;8.35;;;5.00;;
44222;SDS011;29895;48.804;9.386;2023-11-22T03:29:10;7.90;;;4.65;;
44222;SDS011;29895;48.804;9.386;2023-11-22T03:31:36;8.93;;;4.30;;
44222;SDS011;29895;48.804;9.386;2023-11-22T03:34:03;9.73;;;5.03;;
44222;SDS011;29895;48.804;9.386;2023-11-22T03:36:30;8.70;;;4.65;;
44222;SDS011;29895;48.804;9.386;2023-11-22T03:38:55;7.28;;;4.45;;
44222;SDS011;29895;48.804;9.386;2023-11-22T03:41:21;8.55;;;4.47;;
44222;SDS011;29895;48.804;9.386;2023-11-22T03:43:46;11.82;;;5.25;;
44222;SDS011;29895;48.804;9.386;2023-11-22T03:46:12;7.50;;;4.45;;
44222;SDS011;29895;48.804;9.386;2023-11-22T03:48:38;8.38;;;5.00;;
44222;SDS011;29895;48.804;9.386;2023-11-22T03:51:03;9.10;;;4.60;;
44222;SDS011;29895;48.804;9.386;2023-11-22T03:53:29;7.90;;;4.40;;
44222;SDS011;29895;48.804;9.386;2023-11-22T03:55:54;9.48;;;4.90;;
44222;SDS011;29895;48.804;9.386;2023-11-22T03:58:20;8.10;;;4.53;;
44222;SDS011;29895;48.804;9.386;2023-11-22T04:00:46;12.68;;;5.05;;
44222;SDS011;29895;48.804;9.386;2023-11-22T04:03:12;7.82;;;4.68;;
44222;SDS011;29895;48.804;9.386;2023-11-22T04:05:37;6.63;;;4.13;;
44222;SDS011;29895;48.804;9.386;2023-11-22T04:08:03;8.38;;;4.50;;
44222;SDS011;29895;48.804;9.386;2023-11-22T04:10:29;8.48;;;4.20;;
44222;SDS011;29895;48.804;9.386;2023-11-22T04:12:55;7.38;;;4.57;;
44222;SDS011;29895;48.804;9.386;2023-11-22T04:15:22;7.72;;;4.47;;
44222;SDS011;29895;48.804;9.386;2023-11-22T04:17:47;8.23;;;4.45;;
44222;SDS011;29895;48.804;9.386;2023-11-22T04:20:14;8.93;;;4.55;;
44222;SDS011;29895;48.804;9.386;2023-11-22T04:22:43;7.55;;;4.80;;
44222;SDS011;29895;48.804;9.386;2023-11-22T04:25:12;7.85;;;4.47;;
44222;SDS011;29895;48.804;9.386;2023-11-22T04:27:38;9.13;;;5.30;;
44222;SDS011;29895;48.804;9.386;2023-11-22T04:30:09;7.65;;;4.05;;
44222;SDS011;29895;48.804;9.386;2023-11-22T04:32:39;9.40;;;4.60;;
44222;SDS011;29895;48.804;9.386;2023-11-22T04:35:06;7.47;;;4.10;;
44222;SDS011;29895;48.804;9.386;2023-11-22T04:37:32;7.72;;;4.82;;
44222;SDS011;29895;48.804;9.386;2023-11-22T04:39:58;7.30;;;4.22;;
44222;SDS011;29895;48.804;9.386;2023-11-22T04:42:26;6.47;;;3.95;;
44222;SDS011;29895;48.804;9.386;2023-11-22T04:44:54;6.57;;;3.78;;
44222;SDS011;29895;48.804;9.386;2023-11-22T04:47:19;7.03;;;4.43;;
44222;SDS011;29895;48.804;9.386;2023-11-22T04:49:47;6.90;;;3.67;;
44222;SDS011;29895;48.804;9.386;2023-11-22T04:52:13;8.57;;;4.45;;
44222;SDS011;29895;48.804;9.386;2023-11-22T04:54:39;8.07;;;4.20;;
44222;SDS011;29895;48.804;9.386;2023-11-22T04:57:05;8.15;;;4.55;;
44222;SDS011;29895;48.804;9.386;2023-11-22T04:59:31;7.97;;;4.18;;
44222;SDS011;29895;48.804;9.386;2023-11-22T05:01:57;7.15;;;4.05;;
44222;SDS011;29895;48.804;9.386;2023-11-22T05:04:22;7.10;;;4.25;;
44222;SDS011;29895;48.804;9.386;2023-11-22T05:06:48;8.52;;;4.50;;
44222;SDS011;29895;48.804;9.386;2023-11-22T05:09:14;6.72;;;4.60;;
44222;SDS011;29895;48.804;9.386;2023-11-22T05:11:40;8.70;;;5.10;;
44222;SDS011;29895;48.804;9.386;2023-11-22T05:14:06;7.05;;;4.25;;
44222;SDS011;29895;48.804;9.386;2023-11-22T05:16:32;8.05;;;4.07;;
44222;SDS011;29895;48.804;9.386;2023-11-22T05:18:58;7.57;;;4.40;;
44222;SDS011;29895;48.804;9.386;2023-11-22T05:21:25;7.32;;;4.13;;
44222;SDS011;29895;48.804;9.386;2023-11-22T05:23:51;6.25;;;4.28;;
44222;SDS011;29895;48.804;9.386;2023-11-22T05:26:19;7.50;;;4.60;;
44222;SDS011;29895;48.804;9.386;2023-11-22T05:28:45;9.75;;;4.78;;
44222;SDS011;29895;48.804;9.386;2023-11-22T05:31:12;8.18;;;4.65;;
44222;SDS011;29895;48.804;9.386;2023-11-22T05:33:38;9.43;;;4.70;;
44222;SDS011;29895;48.804;9.386;2023-11-22T05:36:05;8.57;;;4.85;;
44222;SDS011;29895;48.804;9.386;2023-11-22T05:38:31;8.07;;;4.22;;
44222;SDS011;29895;48.804;9.386;2023-11-22T05:40:58;8.15;;;4.40;;
44222;SDS011;29895;48.804;9.386;2023-11-22T05:43:25;10.45;;;4.88;;
44222;SDS011;29895;48.804;9.386;2023-11-22T05:45:52;6.93;;;4.47;;
44222;SDS011;29895;48.804;9.386;2023-11-22T05:48:18;7.35;;;4.35;;
44222;SDS011;29895;48.804;9.386;2023-11-22T05:50:44;11.13;;;4.72;;
44222;SDS011;29895;48.804;9.386;2023-11-22T05:53:11;10.32;;;5.07;;
44222;SDS011;29895;48.804;9.386;2023-11-22T05:55:36;9.95;;;4.95;;
44222;SDS011;29895;48.804;9.386;2023-11-22T05:58:05;8.07;;;4.90;;
44222;SDS011;29895;48.804;9.386;2023-11-22T06:00:30;8.13;;;4.55;;
44222;SDS011;29895;48.804;9.386;2023-11-22T06:02:56;6.57;;;4.05;;
44222;SDS011;29895;48.804;9.386;2023-11-22T06:05:21;8.13;;;4.72;;
44222;SDS011;29895;48.804;9.386;2023-11-22T06:07:47;8.88;;;5.00;;
44222;SDS011;29895;48.804;9.386;2023-11-22T06:10:13;10.73;;;5.72;;
44222;SDS011;29895;48.804;9.386;2023-11-22T06:12:40;9.63;;;4.57;;
44222;SDS011;29895;48.804;9.386;2023-11-22T06:15:06;9.98;;;4.88;;
44222;SDS011;29895;48.804;9.386;2023-11-22T06:17:32;10.30;;;4.90;;
44222;SDS011;29895;48.804;9.386;2023-11-22T06:19:58;7.72;;;4.45;;
44222;SDS011;29895;48.804;9.386;2023-11-22T06:22:24;7.47;;;5.05;;
44222;SDS011;29895;48.804;9.386;2023-11-22T06:24:49;7.30;;;4.80;;
44222;SDS011;29895;48.804;9.386;2023-11-22T06:27:15;7.85;;;4.82;;
44222;SDS011;29895;48.804;9.386;2023-11-22T06:29:41;8.38;;;4.97;;
44222;SDS011;29895;48.804;9.386;2023-11-22T06:32:09;9.65;;;4.82;;
44222;SDS011;29895;48.804;9.386;2023-11-22T06:34:35;10.50;;;5.07;;
44222;SDS011;29895;48.804;9.386;2023-11-22T06:37:01;11.43;;;5.07;;
44222;SDS011;29895;48.804;9.386;2023-11-22T06:39:27;9.07;;;5.07;;
44222;SDS011;29895;48.804;9.386;2023-11-22T06:41:53;7.72;;;4.90;;
44222;SDS011;29895;48.804;9.386;2023-11-22T06:44:18;8.38;;;4.63;;
44222;SDS011;29895;48.804;9.386;2023-11-22T06:46:44;7.78;;;4.95;;
44222;SDS011;29895;48.804;9.386;2023-11-22T06:49:09;6.53;;;4.80;;
44222;SDS011;29895;48.804;9.386;2023-11-22T06:51:35;7.43;;;4.72;;
44222;SDS011;29895;48.804;9.386;2023-11-22T06:54:02;6.85;;;4.55;;
44222;SDS011;29895;48.804;9.386;2023-11-22T06:56:28;8.13;;;4.90;;
44222;SDS011;29895;48.804;9.386;2023-11-22T06:58:54;9.60;;;5.00;;
44222;SDS011;29895;48.804;9.386;2023-11-22T07:01:22;8.00;;;5.32;;
44222;SDS011;29895;48.804;9.386;2023-11-22T07:03:50;7.03;;;4.65;;
44222;SDS011;29895;48.804;9.386;2023-11-22T07:06:18;9.73;;;5.20;;
44222;SDS011;29895;48.804;9.386;2023-11-22T07:08:44;9.45;;;5.00;;
44222;SDS011;29895;48.804;9.386;2023-11-22T07:11:10;9.50;;;5.43;;
44222;SDS011;29895;48.804;9.386;2023-11-22T07:13:36;7.57;;;5.50;;
44222;SDS011;29895;48.804;9.386;2023-11-22T07:16:03;8.90;;;5.47;;
44222;SDS011;29895;48.804;9.386;2023-11-22T07:18:30;9.65;;;5.50;;
44222;SDS011;29895;48.804;9.386;2023-11-22T07:20:58;10.85;;;5.40;;
44222;SDS011;29895;48.804;9.386;2023-11-22T07:23:24;9.88;;;5.43;;
44222;SDS011;29895;48.804;9.386;2023-11-22T07:25:54;8.45;;;4.85;;
44222;SDS011;29895;48.804;9.386;2023-11-22T07:28:20;9.77;;;5.03;;
44222;SDS011;29895;48.804;9.386;2023-11-22T07:30:45;9.40;;;5.55;;
44222;SDS011;29895;48.804;9.386;2023-11-22T07:33:13;8.15;;;4.85;;
44222;SDS011;29895;48.804;9.386;2023-11-22T07:35:40;7.38;;;5.00;;
44222;SDS011;29895;48.804;9.386;2023-11-22T07:38:05;8.07;;;4.70;;
44222;SDS011;29895;48.804;9.386;2023-11-22T07:40:33;6.80;;;4.35;;
44222;SDS011;29895;48.804;9.386;2023-11-22T07:43:00;7.93;;;4.40;;
44222;SDS011;29895;48.804;9.386;2023-11-22T07:45:28;8.38;;;4.10;;
44222;SDS011;29895;48.804;9.386;2023-11-22T07:47:53;8.13;;;4.07;;
44222;SDS011;29895;48.804;9.386;2023-11-22T07:50:21;6.75;;;4.40;;
44222;SDS011;29895;48.804;9.386;2023-11-22T07:52:49;12.98;;;6.70;;
44222;SDS011;29895;48.804;9.386;2023-11-22T07:55:15;10.20;;;6.68;;
44222;SDS011;29895;48.804;9.386;2023-11-22T07:57:43;10.10;;;5.15;;
44222;SDS011;29895;48.804;9.386;2023-11-22T08:00:10;7.80;;;4.97;;
44222;SDS011;29895;48.804;9.386;2023-11-22T08:02:36;8.88;;;4.90;;
44222;SDS011;29895;48.804;9.386;2023-11-22T08:05:08;11.13;;;5.22;;
44222;SDS011;29895;48.804;9.386;2023-11-22T08:07:36;8.48;;;4.65;;
44222;SDS011;29895;48.804;9.386;2023-11-22T08:10:06;10.18;;;4.93;;
44222;SDS011;29895;48.804;9.386;2023-11-22T08:12:44;10.63;;;5.10;;
44222;SDS011;29895;48.804;9.386;2023-11-22T08:15:10;9.00;;;5.10;;
44222;SDS011;29895;48.804;9.386;2023-11-22T08:17:39;13.02;;;5.45;;
44222;SDS011;29895;48.804;9.386;2023-11-22T08:20:05;11.55;;;5.35;;
44222;SDS011;29895;48.804;9.386;2023-11-22T08:22:32;10.43;;;5.68;;
44222;SDS011;29895;48.804;9.386;2023-11-22T08:25:03;11.00;;;5.50;;
44222;SDS011;29895;48.804;9.386;2023-11-22T08:27:29;10.85;;;4.80;;
44222;SDS011;29895;48.804;9.386;2023-11-22T08:29:55;10.02;;;5.20;;
44222;SDS011;29895;48.804;9.386;2023-11-22T08:32:20;11.80;;;5.55;;
44222;SDS011;29895;48.804;9.386;2023-11-22T08:34:51;8.32;;;4.80;;
44222;SDS011;29895;48.804;9.386;2023-11-22T08:37:17;8.13;;;4.80;;
44222;SDS011;29895;48.804;9.386;2023-11-22T08:39:43;9.68;;;4.82;;
44222;SDS011;29895;48.804;9.386;2023-11-22T08:42:09;11.35;;;5.90;;
44222;SDS011;29895;48.804;9.386;2023-11-22T08:44:35;9.95;;;5.30;;
44222;SDS011;29895;48.804;9.386;2023-11-22T08:47:01;9.18;;;5.15;;
44222;SDS011;29895;48.804;9.386;2023-11-22T08:49:28;9.93;;;5.28;;
44222;SDS011;29895;48.804;9.386;2023-11-22T08:51:54;9.63;;;5.05;;
44222;SDS011;29895;48.804;9.386;2023-11-22T08:54:21;12.23;;;5.97;;
44222;SDS011;29895;48.804;9.386;2023-11-22T08:56:47;9.63;;;5.60;;
44222;SDS011;29895;48.804;9.386;2023-11-22T08:59:12;9.75;;;5.55;;
44222;SDS011;29895;48.804;9.386;2023-11-22T09:01:38;10.18;;;5.32;;
44222;SDS011;29895;48.804;9.386;2023-11-22T09:04:05;10.18;;;5.20;;
44222;SDS011;29895;48.804;9.386;2023-11-22T09:06:33;15.00;;;5.68;;
44222;SDS011;29895;48.804;9.386;2023-11-22T09:08:59;13.52;;;6.00;;
44222;SDS011;29895;48.804;9.386;2023-11-22T09:11:28;11.45;;;5.53;;
44222;SDS011;29895;48.804;9.386;2023-11-22T09:13:54;11.20;;;6.60;;
44222;SDS011;29895;48.804;9.386;2023-11-22T09:16:22;8.57;;;4.80;;
44222;SDS011;29895;48.804;9.386;2023-11-22T09:18:50;8.80;;;5.18;;
44222;SDS011;29895;48.804;9.386;2023-11-22T09:21:16;8.85;;;5.15;;
44222;SDS011;29895;48.804;9.386;2023-11-22T09:23:42;9.30;;;5.57;;
44222;SDS011;29895;48.804;9.386;2023-11-22T09:26:08;10.80;;;6.50;;
44222;SDS011;29895;48.804;9.386;2023-11-22T09:28:34;10.68;;;5.13;;
44222;SDS011;29895;48.804;9.386;2023-11-22T09:30:59;9.00;;;5.32;;
44222;SDS011;29895;48.804;9.386;2023-11-22T09:33:31;10.68;;;5.22;;
44222;SDS011;29895;48.804;9.386;2023-11-22T09:35:57;14.25;;;6.43;;
44222;SDS011;29895;48.804;9.386;2023-11-22T09:38:23;12.40;;;5.80;;
44222;SDS011;29895;48.804;9.386;2023-11-22T09:40:49;12.75;;;5.88;;
44222;SDS011;29895;48.804;9.386;2023-11-22T09:43:16;12.50;;;5.90;;
44222;SDS011;29895;48.804;9.386;2023-11-22T09:45:44;8.52;;;4.97;;
44222;SDS011;29895;48.804;9.386;2023-11-22T09:48:16;13.57;;;6.45;;
44222;SDS011;29895;48.804;9.386;2023-11-22T09:50:47;12.07;;;6.25;;
44222;SDS011;29895;48.804;9.386;2023-11-22T09:53:24;10.95;;;5.20;;
44222;SDS011;29895;48.804;9.386;2023-11-22T09:55:56;15.77;;;6.20;;
44222;SDS011;29895;48.804;9.386;2023-11-22T09:58:23;12.35;;;5.55;;
44222;SDS011;29895;48.804;9.386;2023-11-22T10:00:50;11.10;;;5.80;;
44222;SDS011;29895;48.804;9.386;2023-11-22T10:03:17;10.82;;;6.35;;
44222;SDS011;29895;48.804;9.386;2023-11-22T10:05:45;12.43;;;6.43;;
44222;SDS011;29895;48.804;9.386;2023-11-22T10:08:10;11.38;;;6.15;;
44222;SDS011;29895;48.804;9.386;2023-11-22T10:10:36;9.65;;;5.55;;
44222;SDS011;29895;48.804;9.386;2023-11-22T10:13:02;13.80;;;6.85;;
44222;SDS011;29895;48.804;9.386;2023-11-22T10:15:28;9.40;;;5.50;;
44222;SDS011;29895;48.804;9.386;2023-11-22T10:17:55;10.40;;;6.30;;
44222;SDS011;29895;48.804;9.386;2023-11-22T10:20:25;12.27;;;6.53;;
44222;SDS011;29895;48.804;9.386;2023-11-22T10:22:59;12.52;;;6.55;;
44222;SDS011;29895;48.804;9.386;2023-11-22T10:25:25;11.77;;;5.97;;
44222;SDS011;29895;48.804;9.386;2023-11-22T10:27:51;12.18;;;6.35;;
44222;SDS011;29895;48.804;9.386;2023-11-22T10:30:17;11.77;;;6.10;;
44222;SDS011;29895;48.804;9.386;2023-11-22T10:32:44;16.35;;;6.43;;
44222;SDS011;29895;48.804;9.386;2023-11-22T10:35:10;15.20;;;7.28;;
44222;SDS011;29895;48.804;9.386;2023-11-22T10:37:39;15.23;;;6.22;;
44222;SDS011;29895;48.804;9.386;2023-11-22T10:40:06;10.65;;;6.25;;
44222;SDS011;29895;48.804;9.386;2023-11-22T10:42:35;13.95;;;6.53;;
44222;SDS011;29895;48.804;9.386;2023-11-22T10:45:02;11.15;;;6.45;;
44222;SDS011;29895;48.804;9.386;2023-11-22T10:47:32;9.32;;;6.00;;
44222;SDS011;29895;48.804;9.386;2023-11-22T10:50:03;12.48;;;6.55;;
44222;SDS011;29895;48.804;9.386;2023-11-22T10:52:29;12.38;;;7.20;;
44222;SDS011;29895;48.804;9.386;2023-11-22T10:54:56;11.82;;;6.32;;
44222;SDS011;29895;48.804;9.386;2023-11-22T10:57:28;11.48;;;6.55;;
44222;SDS011;29895;48.804;9.386;2023-11-22T11:00:06;12.23;;;6.68;;
44222;SDS011;29895;48.804;9.386;2023-11-22T11:02:38;12.57;;;6.97;;
44222;SDS011;29895;48.804;9.386;2023-11-22T11:05:16;11.48;;;6.22;;
44222;SDS011;29895;48.804;9.386;2023-11-22T11:07:53;13.82;;;7.47;;
44222;SDS011;29895;48.804;9.386;2023-11-22T11:10:24;13.20;;;7.38;;
44222;SDS011;29895;48.804;9.386;2023-11-22T11:12:51;14.25;;;6.85;;
44222;SDS011;29895;48.804;9.386;2023-11-22T11:15:18;14.23;;;7.00;;
44222;SDS011;29895;48.804;9.386;2023-11-22T11:17:47;17.30;;;7.93;;
44222;SDS011;29895;48.804;9.386;2023-11-22T11:20:15;11.90;;;7.20;;
44222;SDS011;29895;48.804;9.386;2023-11-22T11:22:43;15.40;;;6.70;;
44222;SDS011;29895;48.804;9.386;2023-11-22T11:25:13;11.18;;;6.68;;
44222;SDS011;29895;48.804;9.386;2023-11-22T11:27:55;11.77;;;6.57;;
44222;SDS011;29895;48.804;9.386;2023-11-22T11:33:53;12.75;;;6.97;;
44222;SDS011;29895;48.804;9.386;2023-11-22T11:36:03;12.73;;;6.88;;
44222;SDS011;29895;48.804;9.386;2023-11-22T11:38:34;11.88;;;6.45;;
44222;SDS011;29895;48.804;9.386;2023-11-22T11:41:08;14.18;;;7.22;;
44222;SDS011;29895;48.804;9.386;2023-11-22T11:46:16;11.90;;;6.50;;
44222;SDS011;29895;48.804;9.386;2023-11-22T11:48:49;14.73;;;6.43;;
44222;SDS011;29895;48.804;9.386;2023-11-22T11:51:16;10.43;;;6.35;;
44222;SDS011;29895;48.804;9.386;2023-11-22T11:53:44;10.93;;;6.32;;
44222;SDS011;29895;48.804;9.386;2023-11-22T11:56:11;11.23;;;6.70;;
44222;SDS011;29895;48.804;9.386;2023-11-22T11:58:37;11.98;;;5.88;;
44222;SDS011;29895;48.804;9.386;2023-11-22T12:01:06;11.57;;;6.55;;
44222;SDS011;29895;48.804;9.386;2023-11-22T12:03:35;9.23;;;5.63;;
44222;SDS011;29895;48.804;9.386;2023-11-22T12:06:01;11.80;;;6.15;;
44222;SDS011;29895;48.804;9.386;2023-11-22T12:08:27;11.00;;;6.22;;
44222;SDS011;29895;48.804;9.386;2023-11-22T12:10:55;9.95;;;6.18;;
44222;SDS011;29895;48.804;9.386;2023-11-22T12:13:23;11.30;;;5.38;;
44222;SDS011;29895;48.804;9.386;2023-11-22T12:15:52;10.20;;;5.93;;
44222;SDS011;29895;48.804;9.386;2023-11-22T12:18:19;14.70;;;6.28;;
44222;SDS011;29895;48.804;9.386;2023-11-22T12:20:58;9.95;;;5.65;;
44222;SDS011;29895;48.804;9.386;2023-11-22T12:23:24;9.82;;;5.85;;
44222;SDS011;29895;48.804;9.386;2023-11-22T12:25:58;13.73;;;6.20;;
44222;SDS011;29895;48.804;9.386;2023-11-22T12:28:26;11.68;;;6.18;;
44222;SDS011;29895;48.804;9.386;2023-11-22T12:30:53;8.98;;;5.53;;
44222;SDS011;29895;48.804;9.386;2023-11-22T12:33:18;10.55;;;5.25;;
44222;SDS011;29895;48.804;9.386;2023-11-22T12:35:45;9.40;;;5.82;;
44222;SDS011;29895;48.804;9.386;2023-11-22T12:38:11;13.70;;;6.60;;
44222;SDS011;29895;48.804;9.386;2023-11-22T12:40:37;9.75;;;5.78;;
44222;SDS011;29895;48.804;9.386;2023-11-22T12:43:08;11.10;;;5.93;;
44222;SDS011;29895;48.804;9.386;2023-11-22T12:45:34;12.75;;;5.45;;
44222;SDS011;29895;48.804;9.386;2023-11-22T12:48:19;9.82;;;5.53;;
44222;SDS011;29895;48.804;9.386;2023-11-22T12:50:49;14.48;;;5.43;;
44222;SDS011;29895;48.804;9.386;2023-11-22T12:53:15;11.02;;;5.45;;
44222;SDS011;29895;48.804;9.386;2023-11-22T12:55:42;10.90;;;5.32;;
44222;SDS011;29895;48.804;9.386;2023-11-22T12:58:09;11.73;;;5.85;;
44222;SDS011;29895;48.804;9.386;2023-11-22T13:00:35;9.05;;;5.00;;
44222;SDS011;29895;48.804;9.386;2023-11-22T13:03:01;9.90;;;5.28;;
44222;SDS011;29895;48.804;9.386;2023-11-22T13:05:27;9.43;;;5.57;;
44222;SDS011;29895;48.804;9.386;2023-11-22T13:07:53;8.88;;;5.50;;
44222;SDS011;29895;48.804;9.386;2023-11-22T13:10:18;10.75;;;5.72;;
44222;SDS011;29895;48.804;9.386;2023-11-22T13:12:49;9.20;;;5.45;;
44222;SDS011;29895;48.804;9.386;2023-11-22T13:15:16;9.23;;;5.63;;
44222;SDS011;29895;48.804;9.386;2023-11-22T13:17:42;8.13;;;5.10;;
44222;SDS011;29895;48.804;9.386;2023-11-22T13:20:07;8.82;;;5.32;;
44222;SDS011;29895;48.804;9.386;2023-11-22T13:22:43;13.88;;;6.47;;
44222;SDS011;29895;48.804;9.386;2023-11-22T13:25:10;11.30;;;5.85;;
44222;SDS011;29895;48.804;9.386;2023-11-22T13:27:38;11.32;;;5.72;;
44222;SDS011;29895;48.804;9.386;2023-11-22T13:30:04;9.60;;;5.30;;
44222;SDS011;29895;48.804;9.386;2023-11-22T13:32:31;12.65;;;5.72;;
44222;SDS011;29895;48.804;9.386;2023-11-22T13:34:57;13.45;;;6.85;;
44222;SDS011;29895;48.804;9.386;2023-11-22T13:37:23;19.77;;;8.82;;
44222;SDS011;29895;48.804;9.386;2023-11-22T13:39:49;12.52;;;5.63;;
44222;SDS011;29895;48.804;9.386;2023-11-22T13:42:15;9.95;;;5.60;;
44222;SDS011;29895;48.804;9.386;2023-11-22T13:44:40;11.18;;;5.93;;
44222;SDS011;29895;48.804;9.386;2023-11-22T13:47:06;32.70;;;8.35;;
44222;SDS011;29895;48.804;9.386;2023-11-22T13:49:33;13.05;;;6.60;;
44222;SDS011;29895;48.804;9.386;2023-11-22T13:51:59;9.23;;;5.55;;
44222;SDS011;29895;48.804;9.386;2023-11-22T13:54:24;15.57;;;6.50;;
44222;SDS011;29895;48.804;9.386;2023-11-22T13:56:50;11.88;;;5.63;;
44222;SDS011;29895;48.804;9.386;2023-11-22T13:59:16;12.15;;;6.20;;
44222;SDS011;29895;48.804;9.386;2023-11-22T14:01:42;11.45;;;5.72;;
44222;SDS011;29895;48.804;9.386;2023-11-22T14:04:08;10.32;;;6.10;;
44222;SDS011;29895;48.804;9.386;2023-11-22T14:06:34;11.88;;;6.32;;
44222;SDS011;29895;48.804;9.386;2023-11-22T14:09:00;10.70;;;6.03;;
44222;SDS011;29895;48.804;9.386;2023-11-22T14:11:26;11.27;;;6.53;;
44222;SDS011;29895;48.804;9.386;2023-11-22T14:13:51;9.90;;;6.30;;
44222;SDS011;29895;48.804;9.386;2023-11-22T14:16:17;13.07;;;6.72;;
44222;SDS011;29895;48.804;9.386;2023-11-22T14:18:43;15.98;;;7.57;;
44222;SDS011;29895;48.804;9.386;2023-11-22T14:21:10;11.02;;;5.72;;
44222;SDS011;29895;48.804;9.386;2023-11-22T14:23:36;12.00;;;6.20;;
44222;SDS011;29895;48.804;9.386;2023-11-22T14:26:01;10.52;;;6.85;;
44222;SDS011;29895;48.804;9.386;2023-11-22T14:28:28;12.05;;;6.57;;
44222;SDS011;29895;48.804;9.386;2023-11-22T14:30:55;11.45;;;6.15;;
44222;SDS011;29895;48.804;9.386;2023-11-22T14:33:20;13.63;;;7.03;;
44222;SDS011;29895;48.804;9.386;2023-11-22T14:35:46;13.43;;;6.65;;
44222;SDS011;29895;48.804;9.386;2023-11-22T14:38:12;11.52;;;6.18;;
44222;SDS011;29895;48.804;9.386;2023-11-22T14:40:38;13.20;;;7.35;;
44222;SDS011;29895;48.804;9.386;2023-11-22T14:43:05;9.98;;;6.03;;
44222;SDS011;29895;48.804;9.386;2023-11-22T14:45:32;12.65;;;6.90;;
44222;SDS011;29895;48.804;9.386;2023-11-22T14:47:58;11.52;;;6.68;;